Time;durP1;ratioP1;P1;durP2;ratioP2;P2;SDS_P1;SDS_P2;PMS_P1;PMS_P2;Temp;Humidity;BMP_temperature;BMP_pressure;BME280_temperature;BME280_humidity;BME280_pressure;Samples;Min_cycle;Max_cycle;Signal;HPM_P1;HPM_P2
2021/11/30 00:01:45;;;;;;;14.73;7.57;;;2.80;99.00;;;;;;5032119;28;20234;-79
2021/11/30 00:04:12;;;;;;;11.40;6.63;;;2.90;98.10;;;;;;5028508;28;20347;-79
2021/11/30 00:06:39;;;;;;;12.35;7.90;;;2.90;97.80;;;;;;5019049;28;20336;-77
2021/11/30 00:09:24;;;;;;;11.13;7.00;;;2.90;97.20;;;;;;5016055;28;20574;-79
2021/11/30 00:11:51;;;;;;;8.60;6.40;;;2.90;96.90;;;;;;5015697;28;20211;-78
2021/11/30 00:14:19;;;;;;;11.40;7.43;;;2.90;96.70;;;;;;5020133;28;20206;-78
2021/11/30 00:16:46;;;;;;;10.90;7.20;;;2.90;96.20;;;;;;5025824;28;20235;-79
2021/11/30 00:19:12;;;;;;;10.85;6.78;;;2.90;96.10;;;;;;5017919;28;20287;-78
2021/11/30 00:21:39;;;;;;;10.50;7.28;;;2.90;96.00;;;;;;5016135;28;20312;-79
2021/11/30 00:24:08;;;;;;;12.07;7.40;;;3.00;95.40;;;;;;5024801;28;20218;-78
2021/11/30 00:26:34;;;;;;;13.07;7.82;;;3.00;94.80;;;;;;5021500;28;20330;-79
2021/11/30 00:29:01;;;;;;;10.05;7.18;;;3.10;94.50;;;;;;5024593;28;20217;-79
2021/11/30 00:31:28;;;;;;;9.98;7.32;;;3.10;94.30;;;;;;5026283;28;20210;-79
2021/11/30 00:33:55;;;;;;;11.77;7.55;;;3.10;93.40;;;;;;5022057;28;20297;-77
2021/11/30 00:36:22;;;;;;;12.50;7.43;;;3.10;93.00;;;;;;5019079;28;20646;-77
2021/11/30 00:38:49;;;;;;;15.07;7.55;;;3.10;92.80;;;;;;5019830;28;20223;-77
2021/11/30 00:41:17;;;;;;;9.13;7.13;;;3.10;92.30;;;;;;5022490;28;20234;-78
2021/11/30 00:43:44;;;;;;;8.52;6.50;;;3.20;91.70;;;;;;5031305;28;20213;-78
2021/11/30 00:46:15;;;;;;;10.05;6.80;;;3.20;90.90;;;;;;5024510;28;20287;-76
2021/11/30 00:48:42;;;;;;;12.40;7.20;;;3.20;90.70;;;;;;5017813;28;20221;-76
2021/11/30 00:51:12;;;;;;;8.90;5.70;;;3.20;90.30;;;;;;5019388;28;20210;-78
2021/11/30 00:53:40;;;;;;;11.65;6.68;;;3.20;90.20;;;;;;5030830;28;20717;-77
2021/11/30 00:56:08;;;;;;;12.07;7.50;;;3.20;90.00;;;;;;5028576;28;20828;-80
2021/11/30 00:58:37;;;;;;;8.82;6.15;;;3.20;89.70;;;;;;5023258;28;20281;-78
2021/11/30 01:01:05;;;;;;;9.70;7.00;;;3.20;89.60;;;;;;5022366;28;20306;-79
2021/11/30 01:03:35;;;;;;;8.45;5.28;;;3.30;89.30;;;;;;5021179;28;20286;-79
2021/11/30 01:06:02;;;;;;;15.30;6.53;;;3.30;89.20;;;;;;5023937;28;20237;-79
2021/11/30 01:08:29;;;;;;;9.43;6.55;;;3.30;88.30;;;;;;5023528;28;20297;-78
2021/11/30 01:10:56;;;;;;;9.52;7.20;;;3.30;88.40;;;;;;5016904;28;20626;-78
2021/11/30 01:13:23;;;;;;;12.00;6.00;;;3.30;88.20;;;;;;5016266;28;20607;-79
2021/11/30 01:15:51;;;;;;;11.40;6.40;;;3.30;87.40;;;;;;5020342;28;20309;-78
2021/11/30 01:18:18;;;;;;;9.82;5.93;;;3.30;86.70;;;;;;5022421;28;20218;-79
2021/11/30 01:20:45;;;;;;;8.38;6.45;;;3.40;86.50;;;;;;5016628;28;20698;-78
2021/11/30 01:23:12;;;;;;;6.22;5.30;;;3.40;85.80;;;;;;5018055;28;20233;-78
2021/11/30 01:25:40;;;;;;;8.60;6.28;;;3.40;85.10;;;;;;5020698;28;20230;-79
2021/11/30 01:28:07;;;;;;;9.48;6.20;;;3.40;84.20;;;;;;5019529;28;20546;-78
2021/11/30 01:30:34;;;;;;;7.75;5.40;;;3.40;84.20;;;;;;5019762;28;20241;-79
2021/11/30 01:33:03;;;;;;;10.30;5.90;;;3.40;84.20;;;;;;5015251;28;20214;-78
2021/11/30 01:35:30;;;;;;;7.53;5.43;;;3.40;83.40;;;;;;5021291;28;20229;-77
2021/11/30 01:37:57;;;;;;;7.47;5.50;;;3.40;83.00;;;;;;5017295;28;20220;-77
2021/11/30 01:40:26;;;;;;;9.25;5.88;;;3.50;82.90;;;;;;5014745;28;20423;-78
2021/11/30 01:42:55;;;;;;;9.50;6.75;;;3.40;81.70;;;;;;5013546;28;20214;-78
2021/11/30 01:45:31;;;;;;;10.23;5.18;;;3.40;81.00;;;;;;5013901;28;20239;-77
2021/11/30 01:49:11;;;;;;;10.25;5.72;;;3.40;80.10;;;;;;5014831;28;20202;-76
2021/11/30 01:51:02;;;;;;;10.30;4.97;;;3.40;80.10;;;;;;5023900;28;20231;-77
2021/11/30 01:53:29;;;;;;;9.23;6.30;;;3.50;80.10;;;;;;5015707;28;20211;-77
2021/11/30 01:55:56;;;;;;;8.32;5.05;;;3.50;80.10;;;;;;5010324;28;20321;-77
2021/11/30 01:58:24;;;;;;;8.98;5.10;;;3.50;80.20;;;;;;4994275;28;20580;-77
2021/11/30 02:00:51;;;;;;;7.45;5.10;;;3.50;79.40;;;;;;4993781;28;20235;-77
2021/11/30 02:03:18;;;;;;;5.55;4.70;;;3.50;79.10;;;;;;4994768;28;20306;-78
2021/11/30 02:05:44;;;;;;;10.27;5.10;;;3.40;79.40;;;;;;4995419;28;20631;-76
2021/11/30 02:08:12;;;;;;;6.85;4.65;;;3.40;79.40;;;;;;4997795;28;20211;-76
2021/11/30 02:10:40;;;;;;;9.77;5.38;;;3.40;79.20;;;;;;4998698;28;20233;-78
2021/11/30 02:13:07;;;;;;;7.00;5.10;;;3.50;78.80;;;;;;4998822;28;20208;-78
2021/11/30 02:15:39;;;;;;;6.43;4.80;;;3.40;78.40;;;;;;5008611;28;20636;-78
2021/11/30 02:18:12;;;;;;;7.75;5.05;;;3.50;78.90;;;;;;5017895;28;20691;-78
2021/11/30 02:20:42;;;;;;;13.75;5.88;;;3.50;78.30;;;;;;5014720;28;20226;-78
2021/11/30 02:23:17;;;;;;;7.63;5.80;;;3.40;78.50;;;;;;5026743;28;20569;-78
2021/11/30 02:25:43;;;;;;;10.27;5.00;;;3.40;78.80;;;;;;5029278;28;20229;-77
2021/11/30 02:28:11;;;;;;;7.22;6.53;;;3.50;78.40;;;;;;5029514;28;20253;-78
2021/11/30 02:30:38;;;;;;;13.38;6.22;;;3.40;77.90;;;;;;5024334;28;20213;-77
2021/11/30 02:33:05;;;;;;;8.27;5.22;;;3.40;77.40;;;;;;5019412;28;20214;-76
2021/11/30 02:35:32;;;;;;;6.00;5.40;;;3.40;77.80;;;;;;5014522;28;20236;-78
2021/11/30 02:38:07;;;;;;;6.55;5.15;;;3.50;77.30;;;;;;5014073;28;20214;-79
2021/11/30 02:40:34;;;;;;;7.75;5.70;;;3.50;77.20;;;;;;5013873;28;20316;-76
2021/11/30 02:43:04;;;;;;;11.57;5.00;;;3.50;77.10;;;;;;5019850;28;20249;-78
2021/11/30 02:45:32;;;;;;;6.75;4.85;;;3.50;76.70;;;;;;5014932;28;20249;-76
2021/11/30 02:47:59;;;;;;;5.32;4.82;;;3.50;76.60;;;;;;5015609;28;20221;-76
2021/11/30 02:50:28;;;;;;;6.45;4.65;;;3.50;76.60;;;;;;5027529;28;20225;-78
2021/11/30 02:52:55;;;;;;;7.03;5.22;;;3.50;75.70;;;;;;5032616;28;20223;-76
2021/11/30 02:55:24;;;;;;;6.05;5.05;;;3.50;75.60;;;;;;5032695;28;20230;-78
2021/11/30 02:57:50;;;;;;;8.05;5.20;;;3.50;75.10;;;;;;5031365;28;20210;-79
2021/11/30 03:00:17;;;;;;;5.22;4.72;;;3.50;75.20;;;;;;5028265;28;20301;-78
2021/11/30 03:02:44;;;;;;;6.65;5.30;;;3.50;75.30;;;;;;5015620;28;20230;-78
2021/11/30 03:05:11;;;;;;;6.10;5.20;;;3.60;75.60;;;;;;5012830;28;20237;-78
2021/11/30 03:07:40;;;;;;;6.97;4.60;;;3.60;75.00;;;;;;5012959;28;20241;-77
2021/11/30 03:10:09;;;;;;;6.43;4.45;;;3.60;75.00;;;;;;5013439;28;20210;-78
2021/11/30 03:12:37;;;;;;;6.38;4.43;;;3.60;74.70;;;;;;5012787;28;20207;-77
2021/11/30 03:15:10;;;;;;;6.38;4.25;;;3.60;74.50;;;;;;5013110;28;20214;-79
2021/11/30 03:17:37;;;;;;;8.00;4.53;;;3.60;74.90;;;;;;5013508;28;20236;-78
2021/11/30 03:20:05;;;;;;;9.30;5.03;;;3.70;75.40;;;;;;5013112;28;20204;-78
2021/11/30 03:22:33;;;;;;;6.93;4.65;;;3.60;75.10;;;;;;5013869;28;20324;-78
2021/11/30 03:25:00;;;;;;;4.63;3.78;;;3.60;75.70;;;;;;5015850;28;20220;-78
2021/11/30 03:27:27;;;;;;;4.75;3.92;;;3.60;75.70;;;;;;5014709;28;20210;-78
2021/11/30 03:29:55;;;;;;;5.40;3.78;;;3.60;76.00;;;;;;5015473;28;20214;-79
2021/11/30 03:35:12;;;;;;;3.47;3.17;;;3.40;75.50;;;;;;4962441;28;20607;-78
2021/11/30 03:37:39;;;;;;;5.53;3.55;;;3.40;75.90;;;;;;5019285;28;20646;-78
2021/11/30 03:40:10;;;;;;;5.43;3.33;;;3.40;76.20;;;;;;5019362;28;20560;-77
2021/11/30 03:42:37;;;;;;;5.80;3.75;;;3.40;75.90;;;;;;5018062;28;20234;-78
2021/11/30 03:45:07;;;;;;;5.50;3.63;;;3.40;75.40;;;;;;5017319;28;20211;-77
2021/11/30 03:47:34;;;;;;;6.35;3.65;;;3.40;75.20;;;;;;5016222;28;20210;-79
2021/11/30 03:50:01;;;;;;;3.45;2.80;;;3.40;75.40;;;;;;5016740;28;20675;-78
2021/11/30 03:52:28;;;;;;;3.42;3.13;;;3.40;75.40;;;;;;5016806;28;20232;-79
2021/11/30 03:54:54;;;;;;;7.53;3.53;;;3.40;74.70;;;;;;5016374;28;20206;-78
2021/11/30 03:57:21;;;;;;;3.20;2.92;;;3.40;74.30;;;;;;5013420;28;20207;-78
2021/11/30 03:59:48;;;;;;;5.82;3.15;;;3.30;74.10;;;;;;4997571;28;20872;-78
2021/11/30 04:02:16;;;;;;;3.92;3.03;;;3.30;74.30;;;;;;4996456;28;20230;-79
2021/11/30 04:04:45;;;;;;;3.95;3.22;;;3.30;74.00;;;;;;4997282;28;20211;-78
2021/11/30 04:07:12;;;;;;;3.28;2.90;;;3.30;73.90;;;;;;4996652;28;20239;-78
2021/11/30 04:09:39;;;;;;;5.10;3.13;;;3.30;73.60;;;;;;4996124;28;20216;-78
2021/11/30 04:12:08;;;;;;;3.40;2.60;;;3.30;73.20;;;;;;4995909;28;20211;-78
2021/11/30 04:14:34;;;;;;;5.07;3.90;;;3.30;73.10;;;;;;5014001;28;20206;-78
2021/11/30 04:17:01;;;;;;;4.78;3.13;;;3.30;72.50;;;;;;5016536;28;20241;-78
2021/11/30 04:19:29;;;;;;;8.18;2.95;;;3.30;71.60;;;;;;5017132;28;20221;-79
2021/11/30 04:21:56;;;;;;;7.30;3.42;;;3.30;71.60;;;;;;5017320;28;20313;-78
2021/11/30 04:24:23;;;;;;;3.83;2.75;;;3.30;71.60;;;;;;5026667;28;20216;-78
2021/11/30 04:26:50;;;;;;;3.40;2.95;;;3.30;71.60;;;;;;5038897;28;20234;-79
2021/11/30 04:29:17;;;;;;;4.65;3.35;;;3.30;71.60;;;;;;5038639;28;20201;-78
2021/11/30 04:31:43;;;;;;;4.18;3.08;;;3.30;71.60;;;;;;5038018;28;20185;-79
2021/11/30 04:34:10;;;;;;;3.00;2.65;;;3.30;71.60;;;;;;5036984;28;20206;-79
2021/11/30 04:36:39;;;;;;;5.20;2.60;;;3.40;70.20;;;;;;5035357;28;20245;-80
2021/11/30 04:39:06;;;;;;;3.55;2.80;;;3.40;69.40;;;;;;5035934;28;20289;-78
2021/11/30 04:41:33;;;;;;;3.38;2.60;;;3.40;69.20;;;;;;5037796;28;20279;-79
2021/11/30 04:44:00;;;;;;;4.85;2.40;;;3.40;68.70;;;;;;5028626;28;20310;-79
2021/11/30 04:46:28;;;;;;;3.95;2.65;;;3.40;68.50;;;;;;5008430;28;20234;-78
2021/11/30 04:48:58;;;;;;;4.15;2.42;;;3.40;68.10;;;;;;5000460;28;20221;-78
2021/11/30 04:51:27;;;;;;;4.00;3.10;;;3.40;68.10;;;;;;5025823;28;20282;-78
2021/11/30 04:53:55;;;;;;;3.97;2.35;;;3.50;68.00;;;;;;5028731;28;20205;-78
2021/11/30 04:56:22;;;;;;;2.80;2.50;;;3.40;68.10;;;;;;5022366;28;20260;-78
2021/11/30 04:58:49;;;;;;;6.15;2.85;;;3.40;68.50;;;;;;5013766;28;20214;-78
2021/11/30 05:01:18;;;;;;;4.28;3.28;;;3.40;69.30;;;;;;5002673;28;20212;-77
2021/11/30 05:03:46;;;;;;;5.18;2.83;;;3.30;70.30;;;;;;4994926;28;20734;-78
2021/11/30 05:06:13;;;;;;;3.15;2.88;;;3.30;71.60;;;;;;4994663;28;20238;-77
2021/11/30 05:08:40;;;;;;;4.70;2.85;;;3.20;71.50;;;;;;4995357;28;20546;-77
2021/11/30 05:11:09;;;;;;;4.25;2.90;;;3.20;72.60;;;;;;4994453;28;20263;-77
2021/11/30 05:13:36;;;;;;;6.65;4.18;;;3.20;73.70;;;;;;4994866;28;20694;-77
2021/11/30 05:16:03;;;;;;;3.70;2.95;;;3.10;75.00;;;;;;4995649;28;20249;-77
2021/11/30 05:18:30;;;;;;;4.35;3.00;;;3.00;76.60;;;;;;4994932;28;20215;-78
2021/11/30 05:20:59;;;;;;;3.92;2.80;;;2.90;78.10;;;;;;4997279;28;20207;-78
2021/11/30 05:23:28;;;;;;;3.58;3.10;;;2.90;79.60;;;;;;4997327;28;20230;-78
2021/11/30 05:25:55;;;;;;;4.03;3.33;;;2.90;81.70;;;;;;4994746;28;20236;-77
2021/11/30 05:28:24;;;;;;;5.30;3.55;;;2.80;83.70;;;;;;4994662;28;20305;-77
2021/11/30 05:30:51;;;;;;;5.78;3.83;;;2.80;84.60;;;;;;4994522;28;20304;-77
2021/11/30 05:33:18;;;;;;;5.00;3.40;;;2.70;86.80;;;;;;4994820;28;20214;-77
2021/11/30 05:35:45;;;;;;;6.20;3.50;;;2.70;87.70;;;;;;4994709;28;20317;-76
2021/11/30 05:38:12;;;;;;;4.30;2.95;;;2.60;88.20;;;;;;4994632;28;20259;-76
2021/11/30 05:40:41;;;;;;;5.93;4.13;;;2.60;89.20;;;;;;4994857;28;20214;-77
2021/11/30 05:43:09;;;;;;;7.55;4.20;;;2.60;90.70;;;;;;4994715;28;20230;-77
2021/11/30 05:45:37;;;;;;;5.00;3.70;;;2.60;90.80;;;;;;4994295;28;20241;-77
2021/11/30 05:48:04;;;;;;;5.32;3.72;;;2.50;91.40;;;;;;4995015;28;20237;-77
2021/11/30 05:50:31;;;;;;;4.85;3.67;;;2.50;91.80;;;;;;4994871;28;20208;-77
2021/11/30 05:52:58;;;;;;;5.75;4.00;;;2.60;92.20;;;;;;4994584;28;20296;-79
2021/11/30 05:55:25;;;;;;;6.70;3.53;;;2.50;92.30;;;;;;4993667;28;20235;-77
2021/11/30 05:57:52;;;;;;;6.90;4.63;;;2.50;92.80;;;;;;4994583;28;20209;-77
2021/11/30 06:00:20;;;;;;;5.15;3.80;;;2.50;93.00;;;;;;4994111;28;20236;-78
2021/11/30 06:02:57;;;;;;;6.72;3.80;;;2.50;93.60;;;;;;4993950;28;20590;-77
2021/11/30 06:05:24;;;;;;;6.72;4.03;;;2.50;93.70;;;;;;4994397;28;20630;-77
2021/11/30 06:07:51;;;;;;;7.90;4.55;;;2.40;93.90;;;;;;4994555;28;20709;-77
2021/11/30 06:10:18;;;;;;;5.53;4.25;;;2.40;94.20;;;;;;4993912;28;20233;-77
2021/11/30 06:12:45;;;;;;;5.10;3.80;;;2.30;94.70;;;;;;4993564;28;20209;-77
2021/11/30 06:15:12;;;;;;;7.28;3.88;;;2.30;95.50;;;;;;4994300;28;20256;-77
2021/11/30 06:17:39;;;;;;;8.15;4.53;;;2.30;95.90;;;;;;4993664;28;20336;-77
2021/11/30 06:20:10;;;;;;;6.20;3.90;;;2.30;96.10;;;;;;4993865;28;20220;-77
2021/11/30 06:22:37;;;;;;;7.95;4.57;;;2.30;96.20;;;;;;4993832;28;20244;-78
2021/11/30 06:25:05;;;;;;;4.07;3.22;;;2.40;96.90;;;;;;4993525;28;20213;-78
2021/11/30 06:27:32;;;;;;;7.85;5.00;;;2.30;96.80;;;;;;4994132;28;20260;-78
2021/11/30 06:29:59;;;;;;;7.55;4.35;;;2.20;96.80;;;;;;4993793;28;20210;-78
2021/11/30 06:32:26;;;;;;;5.00;4.00;;;2.20;97.50;;;;;;4993952;28;20209;-78
2021/11/30 06:34:53;;;;;;;8.88;4.30;;;2.20;97.70;;;;;;4996370;28;20226;-78
2021/11/30 06:37:21;;;;;;;7.07;4.32;;;2.20;98.30;;;;;;5003034;28;20214;-77
2021/11/30 06:39:51;;;;;;;5.22;4.20;;;2.20;98.20;;;;;;4996529;28;20217;-77
2021/11/30 06:42:18;;;;;;;5.30;4.60;;;2.20;98.20;;;;;;5001251;28;20242;-78
2021/11/30 06:44:46;;;;;;;5.13;3.75;;;2.20;98.50;;;;;;5005007;28;20214;-78
2021/11/30 06:47:13;;;;;;;4.82;4.32;;;2.20;98.80;;;;;;5006338;28;20233;-79
2021/11/30 06:49:40;;;;;;;4.97;4.18;;;2.20;98.30;;;;;;5006360;28;20687;-78
2021/11/30 06:52:07;;;;;;;5.35;3.80;;;2.20;98.40;;;;;;4993206;28;20212;-78
2021/11/30 06:54:35;;;;;;;5.32;4.28;;;2.10;98.50;;;;;;4993485;28;20552;-78
2021/11/30 06:57:01;;;;;;;5.70;4.35;;;2.10;98.70;;;;;;4993904;28;20323;-77
2021/11/30 06:59:29;;;;;;;5.68;4.28;;;2.10;99.10;;;;;;4993616;28;20218;-77
2021/11/30 07:01:57;;;;;;;4.80;3.15;;;2.10;99.20;;;;;;4993633;28;20245;-78
2021/11/30 07:04:24;;;;;;;6.43;4.10;;;2.10;99.30;;;;;;4993842;28;20209;-78
2021/11/30 07:07:00;;;;;;;8.45;5.18;;;2.00;99.30;;;;;;5037269;23;20577;-80
2021/11/30 07:09:36;;;;;;;13.68;5.80;;;2.00;99.80;;;;;;5040437;28;20207;-78
2021/11/30 07:12:13;;;;;;;7.70;5.00;;;2.00;99.90;;;;;;5038135;28;20234;-78
2021/11/30 07:14:39;;;;;;;8.15;4.70;;;2.00;99.90;;;;;;5038261;28;20191;-78
2021/11/30 07:17:06;;;;;;;5.40;4.35;;;2.00;99.90;;;;;;5038111;28;20236;-77
2021/11/30 07:19:33;;;;;;;5.10;4.60;;;2.00;99.90;;;;;;5039288;28;20345;-77
2021/11/30 07:22:00;;;;;;;6.30;3.92;;;2.00;99.90;;;;;;5038285;28;20845;-78
2021/11/30 07:24:27;;;;;;;6.50;4.63;;;2.00;99.90;;;;;;5038552;28;20572;-79
2021/11/30 07:26:54;;;;;;;8.48;4.32;;;2.00;99.90;;;;;;5038180;28;20228;-78
2021/11/30 07:29:22;;;;;;;5.72;4.97;;;2.10;99.90;;;;;;5040445;28;20210;-78
2021/11/30 07:31:50;;;;;;;4.97;4.25;;;2.10;99.90;;;;;;5039933;28;20235;-78
2021/11/30 07:34:16;;;;;;;8.00;4.88;;;2.10;99.90;;;;;;5039643;28;20216;-79
2021/11/30 07:36:43;;;;;;;5.63;4.00;;;2.10;99.90;;;;;;5039632;28;20227;-78
2021/11/30 07:39:10;;;;;;;10.25;5.15;;;2.10;99.90;;;;;;5040533;28;20211;-78
2021/11/30 07:41:37;;;;;;;9.18;4.00;;;2.10;99.90;;;;;;5039787;28;20215;-80
2021/11/30 07:44:05;;;;;;;7.32;5.00;;;2.10;99.90;;;;;;5040840;28;20228;-77
2021/11/30 07:46:34;;;;;;;5.32;3.70;;;2.10;99.90;;;;;;5039848;28;20311;-80
2021/11/30 07:49:01;;;;;;;5.25;4.72;;;2.20;99.70;;;;;;5039031;28;20227;-77
2021/11/30 07:51:27;;;;;;;5.35;4.22;;;2.20;99.30;;;;;;5038288;28;20210;-80
2021/11/30 07:53:54;;;;;;;4.30;3.90;;;2.20;99.30;;;;;;5039068;28;20207;-78
2021/11/30 07:56:21;;;;;;;8.38;3.90;;;2.20;98.80;;;;;;5038610;28;20597;-78
2021/11/30 07:58:48;;;;;;;5.10;3.78;;;2.20;98.20;;;;;;5039382;28;20212;-79
2021/11/30 08:01:16;;;;;;;7.70;3.80;;;2.30;98.30;;;;;;5037585;28;20207;-76
2021/11/30 08:03:44;;;;;;;5.70;3.75;;;2.20;98.10;;;;;;5039547;28;20212;-76
2021/11/30 08:06:12;;;;;;;7.60;4.28;;;2.20;97.90;;;;;;5038282;28;20256;-76
2021/11/30 08:08:39;;;;;;;5.50;4.10;;;2.20;97.70;;;;;;5039433;28;20226;-76
2021/11/30 08:11:06;;;;;;;5.00;4.18;;;2.30;98.20;;;;;;5037715;28;20212;-77
2021/11/30 08:13:33;;;;;;;4.82;4.00;;;2.20;98.30;;;;;;5037376;28;20214;-76
2021/11/30 08:15:59;;;;;;;4.95;3.88;;;2.20;98.70;;;;;;5037883;28;20227;-78
2021/11/30 08:18:27;;;;;;;5.25;4.10;;;2.20;99.30;;;;;;5037194;28;20219;-77
2021/11/30 08:20:56;;;;;;;4.25;3.70;;;2.20;99.30;;;;;;5037855;28;20208;-79
2021/11/30 08:23:23;;;;;;;5.75;4.43;;;2.20;99.30;;;;;;5038183;28;20232;-75
2021/11/30 08:25:50;;;;;;;6.40;4.22;;;2.10;99.50;;;;;;5039653;28;20291;-77
2021/11/30 08:28:17;;;;;;;6.10;3.85;;;2.10;99.90;;;;;;5041123;28;20207;-76
2021/11/30 08:30:45;;;;;;;6.53;4.40;;;2.10;99.90;;;;;;5040359;28;20211;-78
2021/11/30 08:33:12;;;;;;;7.78;4.60;;;2.10;99.90;;;;;;5043322;28;20412;-77
2021/11/30 08:35:38;;;;;;;7.68;5.05;;;2.10;99.90;;;;;;5045761;28;20242;-78
2021/11/30 08:38:07;;;;;;;6.65;4.10;;;2.10;99.90;;;;;;5042569;28;20274;-77
2021/11/30 08:40:34;;;;;;;8.90;5.13;;;2.20;99.90;;;;;;5038925;28;20269;-76
2021/11/30 08:43:01;;;;;;;4.45;3.70;;;2.10;99.90;;;;;;5041030;28;20228;-76
2021/11/30 08:45:28;;;;;;;10.35;4.60;;;2.10;99.90;;;;;;5041433;28;20204;-77
2021/11/30 08:47:54;;;;;;;13.23;4.80;;;2.10;99.90;;;;;;5042401;28;20669;-76
2021/11/30 08:50:24;;;;;;;8.50;4.50;;;2.10;99.90;;;;;;5042770;28;20212;-76
2021/11/30 08:52:52;;;;;;;6.45;4.38;;;2.10;99.90;;;;;;5046766;28;20204;-80
2021/11/30 08:55:20;;;;;;;5.70;4.30;;;2.20;99.90;;;;;;5050189;28;20766;-76
2021/11/30 08:57:47;;;;;;;7.82;4.60;;;2.10;99.90;;;;;;5049678;28;20209;-78
2021/11/30 09:00:17;;;;;;;6.78;4.72;;;2.20;99.90;;;;;;5042393;28;20219;-77
2021/11/30 09:02:45;;;;;;;4.50;4.05;;;2.20;99.90;;;;;;5038759;28;20234;-75
2021/11/30 09:05:13;;;;;;;6.28;4.60;;;2.20;99.90;;;;;;5038381;28;20303;-78
2021/11/30 09:07:40;;;;;;;7.28;5.28;;;2.20;99.90;;;;;;5038922;28;20223;-77
2021/11/30 09:10:08;;;;;;;4.47;3.67;;;2.20;99.90;;;;;;5038314;28;20212;-78
2021/11/30 09:12:36;;;;;;;5.85;4.10;;;2.10;99.90;;;;;;5037925;28;20233;-78
2021/11/30 09:15:06;;;;;;;5.25;3.97;;;2.10;99.90;;;;;;5040679;28;20211;-79
2021/11/30 09:17:35;;;;;;;9.23;4.43;;;2.10;99.90;;;;;;5041498;28;20246;-80
2021/11/30 09:20:02;;;;;;;4.40;4.00;;;2.10;99.90;;;;;;5042133;28;20197;-77
2021/11/30 09:22:29;;;;;;;5.20;4.13;;;2.10;99.90;;;;;;5041185;28;20382;-76
2021/11/30 09:24:57;;;;;;;6.00;4.15;;;2.00;99.90;;;;;;5043551;28;20208;-77
2021/11/30 09:27:25;;;;;;;6.07;4.93;;;2.00;99.90;;;;;;5042984;28;20320;-76
2021/11/30 09:29:54;;;;;;;6.65;4.93;;;2.00;99.90;;;;;;5045645;28;20298;-79
2021/11/30 09:32:24;;;;;;;7.53;5.20;;;2.00;99.90;;;;;;5045393;28;20226;-78
2021/11/30 09:34:51;;;;;;;7.97;4.43;;;2.00;99.90;;;;;;5050031;28;20224;-77
2021/11/30 09:37:18;;;;;;;5.88;5.18;;;2.10;99.90;;;;;;5053539;28;20323;-78
2021/11/30 09:39:45;;;;;;;5.10;4.25;;;2.10;99.90;;;;;;5053290;28;20214;-77
2021/11/30 09:42:13;;;;;;;6.60;5.05;;;2.10;99.90;;;;;;5052534;28;20212;-77
2021/11/30 09:44:40;;;;;;;8.65;5.50;;;2.10;99.90;;;;;;5051180;28;20296;-77
2021/11/30 09:47:09;;;;;;;5.85;4.18;;;2.10;99.90;;;;;;5052469;28;20287;-78
2021/11/30 09:49:36;;;;;;;5.07;4.43;;;2.20;99.90;;;;;;5052885;28;20207;-79
2021/11/30 09:52:03;;;;;;;8.40;4.35;;;2.20;99.90;;;;;;5051798;28;20272;-77
2021/11/30 09:54:30;;;;;;;7.95;3.75;;;2.20;99.90;;;;;;5055403;28;20220;-76
2021/11/30 09:56:57;;;;;;;5.43;4.43;;;2.20;99.90;;;;;;5052301;28;20293;-75
2021/11/30 09:59:24;;;;;;;5.40;3.90;;;2.20;99.90;;;;;;5049200;28;20203;-75
2021/11/30 10:01:51;;;;;;;5.75;4.60;;;2.20;99.90;;;;;;5041387;28;20218;-75
2021/11/30 10:04:19;;;;;;;6.60;4.43;;;2.20;99.90;;;;;;5038306;28;20226;-78
2021/11/30 10:06:46;;;;;;;3.97;3.55;;;2.20;99.90;;;;;;5038401;28;20254;-76
2021/11/30 10:09:17;;;;;;;6.28;4.18;;;2.20;99.90;;;;;;5040734;28;20200;-77
2021/11/30 10:11:44;;;;;;;5.60;4.20;;;2.30;99.90;;;;;;5038713;28;20312;-77
2021/11/30 10:14:14;;;;;;;5.03;4.10;;;2.30;99.90;;;;;;5040497;28;20204;-77
2021/11/30 10:16:42;;;;;;;6.05;4.15;;;2.30;99.90;;;;;;5049276;28;20223;-76
2021/11/30 10:19:09;;;;;;;7.95;4.45;;;2.30;99.90;;;;;;5048176;28;20214;-76
2021/11/30 10:21:38;;;;;;;7.13;4.22;;;2.30;99.90;;;;;;5045979;28;20326;-76
2021/11/30 10:24:06;;;;;;;6.15;4.80;;;2.40;99.90;;;;;;5048214;28;20228;-76
2021/11/30 10:26:34;;;;;;;7.82;4.10;;;2.40;99.90;;;;;;5046203;28;20238;-76
2021/11/30 10:29:06;;;;;;;9.07;3.65;;;2.40;99.90;;;;;;5040999;28;20668;-75
2021/11/30 10:31:35;;;;;;;5.47;4.00;;;2.40;99.90;;;;;;5041718;28;20251;-75
2021/11/30 10:34:12;;;;;;;4.45;3.35;;;2.50;99.90;;;;;;5041793;28;20216;-75
2021/11/30 10:36:52;;;;;;;6.30;4.07;;;2.50;99.90;;;;;;5046691;28;20234;-75
2021/11/30 10:39:21;;;;;;;5.13;3.35;;;2.50;99.90;;;;;;5042834;28;20208;-76
2021/11/30 10:41:50;;;;;;;5.47;3.17;;;2.50;99.90;;;;;;5040083;28;20224;-76
2021/11/30 10:44:17;;;;;;;4.05;3.63;;;2.50;99.90;;;;;;5040452;28;20257;-75
2021/11/30 10:46:44;;;;;;;12.13;4.20;;;2.50;99.90;;;;;;5036839;28;20235;-76
2021/11/30 10:49:11;;;;;;;6.70;5.07;;;2.50;99.90;;;;;;5037424;28;20279;-78
2021/11/30 10:51:44;;;;;;;5.43;3.75;;;2.60;99.90;;;;;;5036620;28;20214;-77
2021/11/30 10:54:12;;;;;;;11.93;4.47;;;2.60;99.90;;;;;;5037857;28;20202;-76
2021/11/30 10:56:39;;;;;;;7.18;3.45;;;2.60;99.90;;;;;;5034810;28;20695;-78
2021/11/30 10:59:06;;;;;;;6.45;4.30;;;2.70;99.90;;;;;;5035544;28;20719;-77
2021/11/30 11:01:33;;;;;;;5.30;4.32;;;2.70;99.90;;;;;;5035818;28;20207;-80
2021/11/30 11:04:05;;;;;;;5.72;3.65;;;2.70;99.90;;;;;;5035859;28;20229;-79
2021/11/30 11:06:35;;;;;;;4.55;3.30;;;2.70;99.90;;;;;;5035947;28;20239;-77
2021/11/30 11:09:04;;;;;;;6.10;3.85;;;2.70;99.90;;;;;;5034888;28;20269;-79
2021/11/30 11:11:34;;;;;;;6.70;4.80;;;2.70;99.90;;;;;;5034345;28;20579;-77
2021/11/30 11:14:02;;;;;;;4.60;3.40;;;2.70;99.90;;;;;;5035742;28;20695;-77
2021/11/30 11:16:31;;;;;;;4.80;3.05;;;2.70;99.90;;;;;;5036944;28;20231;-76
2021/11/30 11:19:00;;;;;;;5.75;3.63;;;2.70;99.90;;;;;;5038655;28;20660;-76
2021/11/30 11:21:29;;;;;;;5.18;3.90;;;2.70;99.90;;;;;;5036310;28;20232;-75
2021/11/30 11:24:02;;;;;;;10.88;4.28;;;2.60;99.90;;;;;;5037497;28;20225;-76
2021/11/30 11:26:32;;;;;;;3.33;3.03;;;2.70;99.90;;;;;;5038312;28;20261;-75
2021/11/30 11:29:01;;;;;;;4.80;3.60;;;2.70;99.90;;;;;;5043823;28;20257;-77
2021/11/30 11:31:29;;;;;;;4.10;3.40;;;2.70;99.90;;;;;;5045098;28;20284;-76
2021/11/30 11:33:57;;;;;;;5.32;3.30;;;2.70;99.90;;;;;;5046691;28;20224;-76
2021/11/30 11:36:24;;;;;;;8.10;3.75;;;2.70;99.90;;;;;;5046522;28;20228;-77
2021/11/30 11:38:51;;;;;;;3.53;3.22;;;2.70;99.90;;;;;;5047206;28;20205;-77
2021/11/30 11:41:19;;;;;;;4.10;3.10;;;2.70;99.90;;;;;;5045810;28;20378;-75
2021/11/30 11:43:48;;;;;;;3.67;3.08;;;2.70;99.90;;;;;;5046259;28;20240;-76
2021/11/30 11:46:17;;;;;;;3.60;3.10;;;2.70;99.90;;;;;;5048451;28;20248;-76
2021/11/30 11:48:47;;;;;;;4.25;3.83;;;2.70;99.90;;;;;;5035460;28;20209;-76
2021/11/30 11:51:14;;;;;;;4.68;3.40;;;2.60;99.90;;;;;;5035143;28;20227;-76
2021/11/30 11:53:51;;;;;;;6.15;4.20;;;2.70;99.90;;;;;;5037382;28;20209;-76
2021/11/30 11:56:20;;;;;;;4.72;3.50;;;2.70;99.90;;;;;;5040472;28;20617;-75
2021/11/30 11:58:51;;;;;;;6.75;3.42;;;2.70;99.90;;;;;;5040354;28;20250;-74
2021/11/30 12:01:23;;;;;;;4.65;2.97;;;2.70;99.90;;;;;;5041192;28;20295;-76
2021/11/30 12:04:02;;;;;;;3.83;3.17;;;2.60;99.90;;;;;;5040467;28;20236;-76
2021/11/30 12:06:31;;;;;;;4.07;2.78;;;2.60;99.90;;;;;;5037718;28;20241;-76
2021/11/30 12:09:10;;;;;;;4.30;3.65;;;2.60;99.90;;;;;;5040619;28;20210;-76
2021/11/30 12:11:38;;;;;;;7.05;3.85;;;2.60;99.90;;;;;;5038092;28;20205;-76
2021/11/30 12:14:15;;;;;;;3.15;2.85;;;2.60;99.90;;;;;;5038047;28;20209;-76
2021/11/30 12:17:02;;;;;;;5.13;3.58;;;2.60;99.90;;;;;;5036999;28;20232;-76
2021/11/30 12:19:32;;;;;;;5.97;3.35;;;2.60;99.90;;;;;;5036740;28;20212;-77
2021/11/30 12:21:59;;;;;;;4.43;3.55;;;2.60;99.90;;;;;;5037218;28;20208;-77
2021/11/30 12:24:35;;;;;;;6.07;3.30;;;2.60;99.90;;;;;;5037001;28;20267;-76
2021/11/30 12:27:03;;;;;;;4.20;3.80;;;2.60;99.90;;;;;;5038180;28;20231;-75
2021/11/30 12:29:37;;;;;;;5.53;3.88;;;2.60;99.90;;;;;;5039441;28;20568;-76
2021/11/30 12:32:20;;;;;;;6.88;3.60;;;2.60;99.90;;;;;;5043655;28;20220;-76
2021/11/30 12:34:49;;;;;;;3.60;3.30;;;2.60;99.90;;;;;;5044175;28;20193;-76
2021/11/30 12:37:23;;;;;;;5.13;3.42;;;2.60;99.90;;;;;;5039660;28;20228;-75
2021/11/30 12:39:59;;;;;;;3.95;2.88;;;2.60;99.90;;;;;;5037517;28;20819;-79
2021/11/30 12:42:27;;;;;;;5.63;4.03;;;2.60;99.90;;;;;;5037501;28;20209;-78
2021/11/30 12:44:56;;;;;;;6.38;2.55;;;2.60;99.90;;;;;;5038019;28;20578;-78
2021/11/30 12:47:26;;;;;;;3.70;3.40;;;2.60;99.90;;;;;;5037369;28;20282;-76
2021/11/30 12:49:54;;;;;;;4.95;3.60;;;2.60;99.90;;;;;;5048128;28;20208;-76
2021/11/30 12:52:23;;;;;;;4.97;3.70;;;2.60;99.90;;;;;;5055691;28;20236;-79
2021/11/30 12:54:52;;;;;;;4.43;3.85;;;2.60;99.90;;;;;;5044304;28;20583;-78
2021/11/30 12:57:41;;;;;;;5.68;3.55;;;2.60;99.90;;;;;;5039403;28;20285;-78
2021/11/30 13:00:11;;;;;;;4.25;3.47;;;2.60;99.90;;;;;;5037097;28;20562;-77
2021/11/30 13:02:41;;;;;;;10.18;3.92;;;2.70;99.90;;;;;;5037503;28;20227;-77
2021/11/30 13:05:26;;;;;;;4.28;3.88;;;2.70;99.90;;;;;;5036934;28;20261;-77